Time;durP1;ratioP1;P1;durP2;ratioP2;P2;SDS_P1;SDS_P2;PMS_P1;PMS_P2;Temp;Humidity;BMP_temperature;BMP_pressure;BME280_temperature;BME280_humidity;BME280_pressure;Samples;Min_cycle;Max_cycle;Signal;HPM_P1;HPM_P2
2021/03/26 00:00:43;;;;;;;129.75;55.28;;;-0.50;99.90;;;;;;5052310;28;20021;-77
2021/03/26 00:03:14;;;;;;;118.85;52.38;;;-0.50;99.90;;;;;;5052781;28;20513;-77
2021/03/26 00:05:40;;;;;;;131.40;51.05;;;-0.50;99.90;;;;;;5054035;28;20386;-77
2021/03/26 00:08:09;;;;;;;133.95;52.55;;;-0.60;99.90;;;;;;5053732;28;20083;-79
2021/03/26 00:10:35;;;;;;;130.30;51.08;;;-0.60;99.90;;;;;;5053993;28;20029;-78
2021/03/26 00:13:01;;;;;;;127.72;51.95;;;-0.60;99.90;;;;;;5053816;28;20439;-78
2021/03/26 00:15:27;;;;;;;107.20;46.85;;;-0.60;99.90;;;;;;5053921;28;20025;-77
2021/03/26 00:17:52;;;;;;;127.20;51.78;;;-0.60;99.90;;;;;;5052638;28;20031;-78
2021/03/26 00:20:18;;;;;;;107.53;45.28;;;-0.60;99.90;;;;;;5052499;28;20045;-77
2021/03/26 00:22:44;;;;;;;104.25;45.60;;;-0.60;99.90;;;;;;5052093;28;20411;-77
2021/03/26 00:25:11;;;;;;;110.60;44.45;;;-0.70;99.90;;;;;;5053655;28;20025;-77
2021/03/26 00:27:37;;;;;;;120.22;47.17;;;-0.70;99.90;;;;;;5053785;28;20112;-77
2021/03/26 00:30:09;;;;;;;108.28;48.47;;;-0.70;99.90;;;;;;5052231;28;20112;-77
2021/03/26 00:32:35;;;;;;;112.90;48.65;;;-0.70;99.90;;;;;;5053582;28;20017;-77
2021/03/26 00:35:01;;;;;;;118.03;49.67;;;-0.70;99.90;;;;;;5053509;28;20036;-77
2021/03/26 00:37:27;;;;;;;113.65;46.38;;;-0.70;99.90;;;;;;5053264;28;20025;-77
2021/03/26 00:39:52;;;;;;;111.78;48.90;;;-0.80;99.90;;;;;;5053437;28;20040;-77
2021/03/26 00:42:18;;;;;;;115.55;47.78;;;-0.70;99.90;;;;;;5052051;28;20063;-77
2021/03/26 00:44:44;;;;;;;117.90;50.45;;;-0.80;99.90;;;;;;5052158;28;20025;-77
2021/03/26 00:47:10;;;;;;;124.07;52.35;;;-0.80;99.90;;;;;;5052991;28;20029;-77
2021/03/26 00:49:36;;;;;;;120.53;49.25;;;-0.80;99.90;;;;;;5053144;28;20037;-77
2021/03/26 00:52:03;;;;;;;113.90;48.03;;;-0.80;99.90;;;;;;5051881;28;20025;-77
2021/03/26 00:54:29;;;;;;;134.55;57.63;;;-0.80;99.90;;;;;;5053184;28;20028;-77
2021/03/26 00:56:55;;;;;;;112.43;51.28;;;-0.90;99.90;;;;;;5053255;28;20021;-78
2021/03/26 00:59:21;;;;;;;120.05;53.22;;;-0.80;99.90;;;;;;5051847;28;20025;-77
2021/03/26 01:01:46;;;;;;;121.25;50.92;;;-0.90;99.90;;;;;;5053070;28;20108;-78
2021/03/26 01:04:12;;;;;;;117.30;48.33;;;-0.90;99.90;;;;;;5052937;28;20039;-77
2021/03/26 01:06:38;;;;;;;106.43;47.85;;;-0.90;99.90;;;;;;5052812;28;20501;-77
2021/03/26 01:09:04;;;;;;;113.85;48.65;;;-1.00;99.90;;;;;;5051443;28;20041;-77
2021/03/26 01:11:34;;;;;;;104.38;45.25;;;-1.00;99.90;;;;;;5051741;28;20386;-78
2021/03/26 01:14:00;;;;;;;117.13;48.95;;;-1.00;99.90;;;;;;5051656;28;20021;-78
2021/03/26 01:16:27;;;;;;;116.90;48.53;;;-0.90;99.90;;;;;;5052607;28;20075;-77
2021/03/26 01:18:53;;;;;;;107.07;45.75;;;-0.90;99.90;;;;;;5052855;28;20025;-77
2021/03/26 01:21:26;;;;;;;122.57;48.47;;;-0.90;99.90;;;;;;5051438;28;20017;-77
2021/03/26 01:23:52;;;;;;;129.20;52.03;;;-0.90;99.90;;;;;;5051636;28;20059;-76
2021/03/26 01:26:18;;;;;;;106.63;45.90;;;-1.00;99.90;;;;;;5052771;28;20109;-77
2021/03/26 01:28:45;;;;;;;113.45;46.95;;;-0.90;99.90;;;;;;5051555;28;20047;-77
2021/03/26 01:31:11;;;;;;;113.32;47.00;;;-1.00;99.90;;;;;;5051425;28;20021;-77
2021/03/26 01:33:37;;;;;;;110.50;47.90;;;-1.00;99.90;;;;;;5051389;28;20025;-77
2021/03/26 01:36:03;;;;;;;114.03;49.00;;;-1.00;99.90;;;;;;5051433;28;20025;-77
2021/03/26 01:38:29;;;;;;;119.65;50.42;;;-1.00;99.90;;;;;;5052442;28;20033;-77
2021/03/26 01:41:07;;;;;;;111.60;48.58;;;-1.00;99.90;;;;;;5051399;28;20119;-77
2021/03/26 01:43:37;;;;;;;106.38;49.70;;;-1.00;99.90;;;;;;5051756;28;20029;-77
2021/03/26 01:46:04;;;;;;;115.13;49.03;;;-1.00;99.90;;;;;;5052601;28;20092;-76
2021/03/26 01:48:44;;;;;;;107.80;46.60;;;-1.10;99.90;;;;;;5051470;28;20372;-77
2021/03/26 01:51:17;;;;;;;105.03;46.55;;;-1.00;99.90;;;;;;5051361;28;20029;-77
2021/03/26 01:53:43;;;;;;;113.88;46.50;;;-1.00;99.90;;;;;;5051408;28;20470;-77
2021/03/26 01:56:10;;;;;;;107.93;47.95;;;-1.00;99.90;;;;;;5051306;28;20025;-77
2021/03/26 01:58:37;;;;;;;123.20;47.35;;;-1.10;99.90;;;;;;5050911;28;20056;-77
2021/03/26 02:01:10;;;;;;;121.15;50.10;;;-1.10;99.90;;;;;;5050946;28;20017;-77
2021/03/26 02:03:44;;;;;;;130.50;51.22;;;-1.10;99.90;;;;;;5051157;28;20075;-77
2021/03/26 02:06:22;;;;;;;121.30;52.65;;;-1.10;99.90;;;;;;5051252;28;20021;-77
2021/03/26 02:08:49;;;;;;;126.63;50.38;;;-1.20;99.90;;;;;;5047187;28;20068;-77
2021/03/26 02:11:39;;;;;;;115.45;47.35;;;-1.10;99.90;;;;;;5032402;28;20038;-77
2021/03/26 02:14:11;;;;;;;117.65;51.28;;;-1.10;99.90;;;;;;5034349;28;20193;-78
2021/03/26 02:16:38;;;;;;;109.27;48.70;;;-1.20;99.90;;;;;;5036393;28;20029;-77
2021/03/26 02:19:10;;;;;;;110.05;48.20;;;-1.20;99.90;;;;;;5034872;28;20032;-77
2021/03/26 02:21:37;;;;;;;107.90;45.92;;;-1.20;99.90;;;;;;5034788;28;20455;-78
2021/03/26 02:24:10;;;;;;;109.43;46.47;;;-1.10;99.90;;;;;;5036095;28;20025;-78
2021/03/26 02:26:43;;;;;;;112.18;46.88;;;-1.20;99.90;;;;;;5034864;28;20064;-77
2021/03/26 02:29:23;;;;;;;109.03;48.88;;;-1.10;99.90;;;;;;5041153;28;20021;-77
2021/03/26 02:31:55;;;;;;;104.65;45.83;;;-1.20;99.90;;;;;;5054719;28;20024;-78
2021/03/26 02:34:23;;;;;;;103.75;46.03;;;-1.20;99.90;;;;;;5054514;28;20025;-77
2021/03/26 02:36:53;;;;;;;106.15;47.58;;;-1.20;99.90;;;;;;5054548;28;20470;-77
2021/03/26 02:39:38;;;;;;;107.25;48.85;;;-1.20;99.90;;;;;;5054459;28;20017;-77
2021/03/26 02:42:13;;;;;;;114.45;47.60;;;-1.20;99.90;;;;;;5055642;28;20040;-77
2021/03/26 02:44:50;;;;;;;107.05;47.92;;;-1.10;99.90;;;;;;5055823;28;20485;-77
2021/03/26 02:47:36;;;;;;;111.38;47.08;;;-1.20;99.90;;;;;;5055600;28;20029;-78
2021/03/26 02:50:06;;;;;;;110.07;47.45;;;-1.10;99.90;;;;;;5055590;28;20438;-77
2021/03/26 02:53:02;;;;;;;107.15;43.85;;;-1.20;99.90;;;;;;5055371;28;20504;-76
2021/03/26 02:55:37;;;;;;;106.68;46.63;;;-1.20;99.90;;;;;;5054190;28;20029;-77
2021/03/26 02:58:24;;;;;;;105.07;47.80;;;-1.20;99.90;;;;;;5054163;28;20434;-78
2021/03/26 03:00:57;;;;;;;103.13;45.60;;;-1.20;99.90;;;;;;5055144;28;20035;-78
2021/03/26 03:03:26;;;;;;;113.55;45.42;;;-1.20;99.90;;;;;;5055257;28;20506;-77
2021/03/26 03:06:21;;;;;;;107.00;45.95;;;-1.20;99.90;;;;;;5053852;28;20479;-76
2021/03/26 03:08:49;;;;;;;105.75;46.28;;;-1.20;99.90;;;;;;5055362;28;20382;-77
2021/03/26 03:11:26;;;;;;;118.43;47.72;;;-1.20;99.90;;;;;;5055182;28;20190;-77
2021/03/26 03:14:04;;;;;;;119.35;47.78;;;-1.20;99.90;;;;;;5053870;28;20481;-77
2021/03/26 03:16:41;;;;;;;120.30;50.13;;;-1.20;99.90;;;;;;5053856;28;20025;-78
2021/03/26 03:19:15;;;;;;;105.70;44.95;;;-1.20;99.90;;;;;;5053704;28;20036;-77
2021/03/26 03:21:56;;;;;;;121.85;48.75;;;-1.20;99.90;;;;;;5054956;28;20032;-77
2021/03/26 03:24:31;;;;;;;131.13;51.35;;;-1.20;99.90;;;;;;5052455;28;20021;-78
2021/03/26 03:27:05;;;;;;;107.57;49.33;;;-1.20;99.90;;;;;;5054965;28;20027;-77
2021/03/26 03:29:38;;;;;;;119.85;52.15;;;-1.20;99.90;;;;;;5054567;28;20031;-78
2021/03/26 03:32:10;;;;;;;118.78;51.92;;;-1.20;99.90;;;;;;5054886;28;20049;-77
2021/03/26 03:34:44;;;;;;;131.85;52.40;;;-1.20;99.90;;;;;;5054813;28;20038;-78
2021/03/26 03:37:12;;;;;;;125.03;50.90;;;-1.10;99.90;;;;;;5054786;28;20082;-77
2021/03/26 03:39:46;;;;;;;134.05;56.55;;;-1.10;99.90;;;;;;5054704;28;20032;-78
2021/03/26 03:42:26;;;;;;;134.75;55.72;;;-1.10;99.90;;;;;;5053286;28;20517;-77
2021/03/26 03:45:01;;;;;;;125.30;54.17;;;-1.10;99.90;;;;;;5053279;28;20032;-78
2021/03/26 03:47:47;;;;;;;126.70;53.22;;;-1.10;99.90;;;;;;5054510;28;20067;-77
2021/03/26 03:50:30;;;;;;;116.15;53.88;;;-1.20;99.90;;;;;;5052588;28;20033;-77
2021/03/26 03:53:17;;;;;;;129.10;55.72;;;-1.20;99.90;;;;;;5054231;28;20029;-78
2021/03/26 03:55:52;;;;;;;134.00;55.92;;;-1.20;99.90;;;;;;5053122;28;20031;-77
2021/03/26 03:58:24;;;;;;;134.43;53.78;;;-1.20;99.90;;;;;;5054313;28;20393;-78
2021/03/26 04:01:13;;;;;;;122.45;55.63;;;-1.20;99.90;;;;;;5054305;28;20013;-78
2021/03/26 04:04:00;;;;;;;133.95;55.72;;;-1.30;99.90;;;;;;5035356;28;20076;-78
2021/03/26 04:06:31;;;;;;;136.50;56.47;;;-1.30;99.90;;;;;;5049628;28;20079;-77
2021/03/26 04:09:06;;;;;;;135.43;57.03;;;-1.30;99.90;;;;;;5034167;28;20026;-78
2021/03/26 04:11:50;;;;;;;131.88;53.33;;;-1.30;99.90;;;;;;5053090;28;20029;-77
2021/03/26 04:14:44;;;;;;;129.38;57.30;;;-1.30;99.90;;;;;;5052575;28;20036;-77
2021/03/26 04:17:32;;;;;;;141.02;56.42;;;-1.30;99.90;;;;;;5052653;28;20082;-77
2021/03/26 04:20:07;;;;;;;130.02;58.53;;;-1.30;99.90;;;;;;5053461;28;20096;-78
2021/03/26 04:22:40;;;;;;;139.30;58.72;;;-1.30;99.90;;;;;;5053504;28;20032;-77
2021/03/26 04:25:13;;;;;;;145.80;60.53;;;-1.30;99.90;;;;;;5053796;28;20025;-77
2021/03/26 04:27:40;;;;;;;;;;;-1.30;99.90;;;;;;5053233;28;20021;-77
2021/03/26 04:30:14;;;;;;;135.65;58.63;;;-1.30;99.90;;;;;;5053632;28;20370;-77
2021/03/26 04:32:40;;;;;;;142.50;58.97;;;-1.30;99.90;;;;;;5053474;28;20111;-77
2021/03/26 04:35:09;;;;;;;150.85;58.20;;;-1.30;99.90;;;;;;5051763;28;20166;-77
2021/03/26 04:37:51;;;;;;;146.57;61.70;;;-1.30;99.90;;;;;;5053628;28;20053;-78
2021/03/26 04:40:31;;;;;;;157.07;62.05;;;-1.40;99.90;;;;;;5053445;28;20067;-80
2021/03/26 04:43:19;;;;;;;148.23;60.55;;;-1.40;99.90;;;;;;5051809;28;20036;-78
2021/03/26 04:45:45;;;;;;;156.18;63.40;;;-1.30;99.90;;;;;;5053590;28;20162;-78
2021/03/26 04:48:16;;;;;;;149.75;67.65;;;-1.30;99.90;;;;;;5051998;28;20132;-77
2021/03/26 04:51:22;;;;;;;146.10;62.70;;;-1.30;99.90;;;;;;5053041;28;20032;-78
2021/03/26 04:53:59;;;;;;;144.80;63.75;;;-1.30;99.90;;;;;;5014707;28;20025;-77
2021/03/26 04:56:30;;;;;;;148.57;61.58;;;-1.30;99.90;;;;;;5063653;28;20037;-77
2021/03/26 04:58:59;;;;;;;149.60;63.70;;;-1.20;99.90;;;;;;5053234;28;20013;-77
2021/03/26 05:01:27;;;;;;;153.75;64.60;;;-1.20;99.90;;;;;;5053043;28;20471;-77
2021/03/26 05:04:09;;;;;;;155.63;63.30;;;-1.20;99.90;;;;;;5053067;28;20029;-77
2021/03/26 05:06:41;;;;;;;150.48;63.58;;;-1.20;99.90;;;;;;5052768;28;20025;-78
2021/03/26 05:09:20;;;;;;;151.63;64.88;;;-1.10;99.90;;;;;;5051784;28;20020;-77
2021/03/26 05:11:53;;;;;;;144.13;64.45;;;-1.10;99.90;;;;;;5051773;28;20032;-77
2021/03/26 05:14:29;;;;;;;145.90;60.88;;;-1.00;99.90;;;;;;5052835;28;20021;-77
2021/03/26 05:17:13;;;;;;;151.43;63.63;;;-0.90;99.90;;;;;;5052760;28;20079;-77
2021/03/26 05:19:55;;;;;;;148.18;59.53;;;-0.90;99.90;;;;;;5051573;28;20382;-77
2021/03/26 05:22:51;;;;;;;155.52;63.22;;;-0.90;99.90;;;;;;5051492;28;20386;-77
2021/03/26 05:25:36;;;;;;;149.82;64.95;;;-0.80;99.90;;;;;;5052845;28;20100;-78
2021/03/26 05:28:05;;;;;;;140.88;60.58;;;-0.70;99.90;;;;;;5052621;28;20115;-78
2021/03/26 05:30:38;;;;;;;134.48;55.67;;;-0.70;99.90;;;;;;5052824;28;20040;-77
2021/03/26 05:33:09;;;;;;;;;;;-0.60;99.90;;;;;;5051990;28;20071;-77
2021/03/26 05:35:42;;;;;;;150.40;60.00;;;-0.60;99.90;;;;;;5051203;28;20515;-77
2021/03/26 05:38:16;;;;;;;149.25;61.70;;;-0.50;99.90;;;;;;5052701;28;20029;-77
2021/03/26 05:40:59;;;;;;;142.88;60.92;;;-0.40;99.90;;;;;;5051473;28;20082;-78
2021/03/26 05:43:43;;;;;;;;;;;-0.30;99.90;;;;;;5050438;28;20200;-78
2021/03/26 05:46:28;;;;;;;160.60;64.70;;;-0.20;99.90;;;;;;5048568;28;19904;-77
2021/03/26 05:48:58;;;;;;;155.63;63.67;;;-0.10;99.90;;;;;;5053491;28;20029;-77
2021/03/26 05:52:03;;;;;;;137.65;60.92;;;0.00;99.90;;;;;;5054259;28;20025;-75
2021/03/26 05:54:46;;;;;;;162.40;67.82;;;0.10;99.90;;;;;;5053210;28;20059;-76
2021/03/26 05:57:18;;;;;;;;;;;0.20;99.90;;;;;;5052742;28;20032;-75
2021/03/26 05:59:56;;;;;;;153.40;60.70;;;0.40;99.90;;;;;;5055020;28;19909;-75
2021/03/26 06:02:39;;;;;;;177.02;75.05;;;0.50;99.90;;;;;;5054934;28;20041;-76
2021/03/26 06:05:26;;;;;;;258.88;100.25;;;0.60;99.90;;;;;;5055801;28;20095;-76
2021/03/26 06:08:04;;;;;;;202.98;76.00;;;0.70;99.90;;;;;;5056265;28;20029;-77
2021/03/26 06:10:42;;;;;;;172.65;72.13;;;0.70;99.90;;;;;;5055061;28;20040;-76
2021/03/26 06:13:39;;;;;;;156.82;67.90;;;0.80;99.90;;;;;;5054612;28;20470;-76
2021/03/26 06:16:13;;;;;;;157.07;66.97;;;0.90;99.90;;;;;;5053488;28;20025;-76
2021/03/26 06:18:53;;;;;;;200.20;85.72;;;1.00;99.90;;;;;;5053419;28;20017;-76
2021/03/26 06:21:44;;;;;;;311.40;123.60;;;1.10;99.90;;;;;;5054559;28;20029;-76
2021/03/26 06:24:43;;;;;;;226.25;100.18;;;1.30;99.90;;;;;;5054270;28;20025;-77
2021/03/26 06:27:22;;;;;;;232.02;97.80;;;1.40;99.90;;;;;;5046147;28;20119;-74
2021/03/26 06:30:00;;;;;;;227.93;90.53;;;1.60;99.90;;;;;;5053590;28;20021;-77
2021/03/26 06:32:28;;;;;;;229.60;96.63;;;1.80;99.90;;;;;;5035992;28;20041;-79
2021/03/26 06:35:31;;;;;;;224.52;95.25;;;2.00;99.90;;;;;;5034607;28;20053;-78
2021/03/26 06:38:27;;;;;;;218.05;90.03;;;2.10;99.90;;;;;;5036297;28;20386;-76
2021/03/26 06:41:21;;;;;;;197.23;88.45;;;2.40;99.90;;;;;;5052581;28;20478;-77
2021/03/26 06:44:02;;;;;;;186.90;88.78;;;2.60;99.90;;;;;;5053211;28;20500;-76
2021/03/26 06:46:48;;;;;;;217.23;110.30;;;2.80;99.90;;;;;;5052527;28;20056;-77
2021/03/26 06:49:23;;;;;;;264.67;132.00;;;3.00;99.90;;;;;;5051399;28;20032;-76
2021/03/26 06:52:00;;;;;;;219.27;106.00;;;3.20;99.90;;;;;;5044549;28;20037;-76
2021/03/26 06:54:28;;;;;;;215.45;104.75;;;3.40;99.90;;;;;;5065700;28;20040;-75
2021/03/26 06:57:28;;;;;;;250.98;117.78;;;3.60;99.90;;;;;;5044476;28;20043;-75
2021/03/26 07:00:23;;;;;;;245.07;115.20;;;3.80;99.90;;;;;;5016892;28;20029;-77
2021/03/26 07:03:07;;;;;;;277.58;123.88;;;4.00;99.90;;;;;;5053253;28;20041;-77
2021/03/26 07:06:13;;;;;;;232.38;110.95;;;4.20;99.90;;;;;;5050736;28;20390;-76
2021/03/26 07:09:11;;;;;;;217.07;98.97;;;4.50;99.90;;;;;;5054543;28;20040;-76
2021/03/26 07:11:52;;;;;;;175.52;78.20;;;4.70;99.90;;;;;;5049161;28;20033;-76
2021/03/26 07:14:20;;;;;;;166.95;71.63;;;4.80;99.90;;;;;;5049876;28;20024;-77
2021/03/26 07:17:00;;;;;;;155.18;70.40;;;5.00;95.60;;;;;;5044500;28;20036;-77
2021/03/26 07:19:45;;;;;;;159.25;69.68;;;5.30;93.70;;;;;;5038131;28;20513;-77
2021/03/26 07:22:48;;;;;;;143.90;68.25;;;5.50;92.40;;;;;;5045809;28;20141;-77
2021/03/26 07:25:36;;;;;;;145.60;65.20;;;5.60;90.50;;;;;;5038976;28;20409;-77
2021/03/26 07:28:18;;;;;;;147.13;68.43;;;5.90;87.70;;;;;;5044225;28;20024;-78
2021/03/26 07:30:52;;;;;;;149.63;67.43;;;6.10;86.50;;;;;;5044257;28;20107;-77
2021/03/26 07:33:22;;;;;;;145.02;64.80;;;6.30;85.50;;;;;;5045724;28;20622;-77
2021/03/26 07:36:33;;;;;;;130.80;61.15;;;6.50;84.70;;;;;;5034173;28;20467;-76
2021/03/26 07:39:36;;;;;;;137.65;60.08;;;6.70;84.20;;;;;;5051824;28;20027;-77
2021/03/26 07:42:05;;;;;;;140.55;61.55;;;6.80;80.60;;;;;;5052064;28;20116;-76
2021/03/26 07:44:58;;;;;;;117.07;58.63;;;7.00;79.80;;;;;;5046192;28;20409;-76
2021/03/26 07:47:32;;;;;;;;;;;7.20;80.00;;;;;;5042548;28;20044;-76
2021/03/26 07:50:03;;;;;;;114.90;54.80;;;7.40;78.10;;;;;;5039390;28;19916;-76
2021/03/26 07:52:52;;;;;;;129.40;57.47;;;7.60;77.10;;;;;;5049186;28;20482;-76
2021/03/26 07:55:35;;;;;;;125.28;56.40;;;7.80;76.20;;;;;;5041853;28;20025;-76
2021/03/26 07:58:13;;;;;;;139.50;61.25;;;7.90;74.30;;;;;;5035988;28;20093;-77
2021/03/26 08:01:09;;;;;;;111.53;51.05;;;8.10;74.30;;;;;;5051057;28;20033;-77
2021/03/26 08:03:59;;;;;;;116.63;51.13;;;8.30;73.10;;;;;;5046773;28;20053;-77
2021/03/26 08:07:06;;;;;;;104.72;48.80;;;8.50;71.70;;;;;;5042745;28;20033;-78
2021/03/26 08:09:44;;;;;;;105.22;49.58;;;8.60;70.10;;;;;;5050758;28;20037;-77
2021/03/26 08:12:31;;;;;;;108.70;49.88;;;8.80;69.50;;;;;;5052938;28;20081;-77
2021/03/26 08:15:30;;;;;;;105.60;47.35;;;9.10;68.60;;;;;;5049314;28;20092;-76
2021/03/26 08:18:27;;;;;;;97.47;44.88;;;9.30;67.80;;;;;;5043524;28;20032;-77
2021/03/26 08:21:03;;;;;;;94.88;46.10;;;9.40;65.80;;;;;;5045476;28;20483;-76
2021/03/26 08:23:29;;;;;;;95.55;46.22;;;9.50;65.40;;;;;;5045962;28;20049;-76
2021/03/26 08:26:03;;;;;;;94.47;47.38;;;9.70;65.40;;;;;;5052627;28;20063;-77
2021/03/26 08:28:31;;;;;;;94.63;43.65;;;9.80;64.10;;;;;;5049474;28;20505;-78
2021/03/26 08:31:20;;;;;;;97.68;45.10;;;9.80;63.70;;;;;;5051050;28;20502;-76
2021/03/26 08:34:13;;;;;;;95.78;45.88;;;9.90;63.70;;;;;;5041460;28;20025;-75
2021/03/26 08:37:03;;;;;;;98.80;46.75;;;10.00;62.80;;;;;;5050433;28;20028;-76
2021/03/26 08:39:34;;;;;;;103.53;47.95;;;10.10;62.10;;;;;;5051628;28;20025;-75
2021/03/26 08:42:27;;;;;;;99.18;47.78;;;10.20;61.30;;;;;;5051662;28;20120;-77
2021/03/26 08:44:58;;;;;;;93.90;44.85;;;10.40;61.80;;;;;;5052801;28;20025;-76
2021/03/26 08:47:37;;;;;;;81.95;42.95;;;10.50;61.60;;;;;;5051182;28;20021;-76
2021/03/26 08:50:30;;;;;;;91.05;43.20;;;10.70;61.80;;;;;;5050798;28;20102;-77
2021/03/26 08:53:32;;;;;;;83.72;39.97;;;10.90;60.20;;;;;;5048089;28;20021;-76
2021/03/26 08:56:33;;;;;;;91.25;43.35;;;11.10;58.40;;;;;;5038489;28;20120;-77
2021/03/26 08:59:20;;;;;;;85.93;41.75;;;11.20;58.80;;;;;;5050995;28;20021;-77
2021/03/26 09:02:13;;;;;;;85.55;40.63;;;11.40;58.30;;;;;;5048625;28;20044;-77
2021/03/26 09:05:17;;;;;;;81.53;37.97;;;11.60;57.20;;;;;;5030946;28;20022;-77
2021/03/26 09:08:04;;;;;;;81.32;37.70;;;11.80;56.90;;;;;;5031705;28;20273;-78
2021/03/26 09:10:54;;;;;;;94.20;40.65;;;11.90;56.00;;;;;;5041828;28;20029;-77
2021/03/26 09:13:47;;;;;;;77.63;37.83;;;12.10;55.80;;;;;;5041894;28;20120;-77
2021/03/26 09:16:28;;;;;;;63.65;35.13;;;12.20;55.30;;;;;;5044728;28;20463;-78
2021/03/26 09:19:13;;;;;;;73.75;36.65;;;12.30;54.30;;;;;;5038453;28;20475;-77
2021/03/26 09:21:53;;;;;;;74.45;35.17;;;12.40;54.00;;;;;;5037971;28;20022;-78
2021/03/26 09:24:38;;;;;;;75.70;35.83;;;12.50;53.20;;;;;;5049699;28;20106;-78
2021/03/26 09:27:18;;;;;;;74.20;36.17;;;12.50;52.90;;;;;;5046736;28;20029;-77
2021/03/26 09:30:05;;;;;;;73.45;37.08;;;12.60;52.80;;;;;;5037194;28;20036;-77
2021/03/26 09:32:34;;;;;;;60.90;29.80;;;12.70;52.60;;;;;;5044824;28;20363;-77
2021/03/26 09:35:35;;;;;;;68.03;34.00;;;12.80;50.90;;;;;;5042089;28;20021;-78
2021/03/26 09:38:06;;;;;;;70.07;33.83;;;12.80;50.20;;;;;;5005736;28;20507;-75
2021/03/26 09:40:46;;;;;;;67.53;35.45;;;12.90;49.70;;;;;;5033422;28;20042;-75
2021/03/26 09:43:25;;;;;;;68.35;35.85;;;13.00;50.40;;;;;;5046136;28;20040;-76
2021/03/26 09:45:51;;;;;;;63.63;33.95;;;13.20;51.90;;;;;;5042847;28;20025;-76
2021/03/26 09:48:58;;;;;;;65.22;33.15;;;13.30;51.20;;;;;;5046828;28;20106;-78
2021/03/26 09:51:49;;;;;;;62.72;33.65;;;13.40;50.80;;;;;;5009067;28;20528;-76
2021/03/26 09:54:41;;;;;;;70.28;34.60;;;13.20;48.70;;;;;;5039711;28;20032;-74
2021/03/26 09:57:16;;;;;;;56.63;30.13;;;13.20;49.90;;;;;;5036577;28;20038;-75
2021/03/26 09:59:45;;;;;;;56.28;29.10;;;13.20;49.80;;;;;;5037363;28;20391;-75
2021/03/26 10:02:10;;;;;;;63.47;32.10;;;13.30;50.00;;;;;;5040719;28;20091;-75
2021/03/26 10:04:51;;;;;;;73.05;35.80;;;13.30;48.50;;;;;;5038170;28;20105;-75
2021/03/26 10:07:30;;;;;;;71.30;34.90;;;13.40;49.70;;;;;;5035631;28;20030;-75
2021/03/26 10:10:43;;;;;;;63.72;33.70;;;13.50;49.80;;;;;;5045023;28;20055;-76
2021/03/26 10:13:26;;;;;;;59.47;31.33;;;13.50;48.30;;;;;;5041555;28;20029;-75
2021/03/26 10:16:04;;;;;;;62.05;31.48;;;13.60;48.80;;;;;;5044415;28;20030;-76
2021/03/26 10:18:38;;;;;;;57.42;29.20;;;13.80;49.60;;;;;;5038077;28;20071;-75
2021/03/26 10:21:11;;;;;;;54.42;29.52;;;13.80;48.70;;;;;;5043500;28;20028;-77
2021/03/26 10:23:54;;;;;;;60.55;30.20;;;13.90;47.40;;;;;;5041821;28;20037;-77
2021/03/26 10:26:57;;;;;;;54.75;28.92;;;14.00;48.30;;;;;;5047939;28;20501;-78
2021/03/26 10:29:25;;;;;;;69.45;31.10;;;13.90;46.40;;;;;;5044488;28;20104;-78
2021/03/26 10:31:52;;;;;;;54.35;26.08;;;13.90;46.80;;;;;;5045170;28;20567;-78
2021/03/26 10:34:34;;;;;;;53.33;25.60;;;14.00;47.00;;;;;;5045966;28;20072;-78
2021/03/26 10:37:17;;;;;;;46.50;25.50;;;13.90;46.30;;;;;;5044515;28;20406;-78
2021/03/26 10:39:50;;;;;;;55.63;28.00;;;14.00;46.70;;;;;;5047394;28;20025;-78
2021/03/26 10:42:34;;;;;;;432.65;155.68;;;13.90;47.20;;;;;;5044622;28;20044;-77
2021/03/26 10:45:37;;;;;;;104.00;45.78;;;13.80;47.20;;;;;;5043338;28;20040;-79
2021/03/26 10:48:24;;;;;;;63.28;28.15;;;13.80;48.50;;;;;;5047328;28;20041;-77
2021/03/26 10:51:18;;;;;;;81.47;34.47;;;13.70;48.80;;;;;;5046511;28;20028;-76
2021/03/26 10:54:00;;;;;;;55.88;27.80;;;13.70;48.40;;;;;;5046521;28;20029;-76
2021/03/26 10:56:47;;;;;;;101.47;39.63;;;13.70;48.40;;;;;;5047801;28;20040;-77
2021/03/26 10:59:27;;;;;;;55.92;26.98;;;13.60;47.50;;;;;;5038291;28;20024;-76
2021/03/26 11:02:16;;;;;;;56.65;29.67;;;13.60;47.40;;;;;;5034230;28;20041;-76
2021/03/26 11:04:44;;;;;;;56.55;31.83;;;13.60;47.40;;;;;;5042570;28;20084;-77
2021/03/26 11:07:18;;;;;;;75.47;34.58;;;13.60;47.90;;;;;;5049765;28;20021;-76
2021/03/26 11:09:55;;;;;;;58.92;30.70;;;13.70;47.80;;;;;;5040341;28;20025;-76
2021/03/26 11:12:45;;;;;;;64.68;29.13;;;13.80;47.90;;;;;;5044525;28;20036;-76
2021/03/26 11:15:19;;;;;;;59.22;29.40;;;13.80;46.90;;;;;;5052218;28;20029;-76
2021/03/26 11:18:03;;;;;;;57.97;29.60;;;13.90;47.60;;;;;;5054665;28;20024;-76
2021/03/26 11:20:59;;;;;;;57.20;30.35;;;14.10;48.40;;;;;;5052711;28;20025;-77
2021/03/26 11:23:38;;;;;;;64.57;35.50;;;14.20;47.60;;;;;;5052703;28;20094;-77
2021/03/26 11:26:04;;;;;;;101.93;33.63;;;14.30;47.80;;;;;;5053673;28;20082;-77
2021/03/26 11:29:03;;;;;;;58.95;28.35;;;14.30;47.90;;;;;;5054936;28;20029;-77
2021/03/26 11:31:40;;;;;;;54.58;24.85;;;14.30;46.50;;;;;;5054943;28;20115;-77
2021/03/26 11:34:27;;;;;;;46.00;26.00;;;14.40;46.60;;;;;;5054715;28;20418;-77
2021/03/26 11:37:05;;;;;;;54.17;28.48;;;14.50;46.10;;;;;;5054814;28;20032;-77
2021/03/26 11:39:33;;;;;;;53.17;27.83;;;14.50;44.90;;;;;;5054799;28;20036;-77
2021/03/26 11:42:08;;;;;;;51.30;25.83;;;14.60;45.40;;;;;;5052979;28;20522;-77
2021/03/26 11:44:52;;;;;;;49.38;26.60;;;14.70;45.90;;;;;;5052433;28;20025;-77
2021/03/26 11:47:26;;;;;;;53.10;26.30;;;14.70;45.60;;;;;;5032973;28;20501;-77
2021/03/26 11:50:24;;;;;;;50.80;24.52;;;14.70;46.10;;;;;;5033358;28;20037;-76
2021/03/26 11:53:22;;;;;;;61.90;30.17;;;14.70;45.50;;;;;;5034690;28;20029;-77
2021/03/26 11:56:21;;;;;;;49.33;24.75;;;14.60;45.50;;;;;;5029688;28;20128;-77
2021/03/26 11:59:07;;;;;;;57.88;29.00;;;14.60;45.40;;;;;;5034505;28;20021;-76
2021/03/26 12:02:07;;;;;;;61.25;25.70;;;14.60;46.10;;;;;;5033195;28;20090;-77
2021/03/26 12:04:45;;;;;;;45.53;23.83;;;14.60;47.10;;;;;;5049826;28;20044;-76
2021/03/26 12:07:15;;;;;;;50.08;26.23;;;14.60;46.80;;;;;;5042498;28;20060;-76
2021/03/26 12:10:26;;;;;;;72.45;31.42;;;14.70;45.80;;;;;;5040951;28;20040;-76
2021/03/26 12:13:29;;;;;;;55.58;31.95;;;14.90;45.60;;;;;;5043885;28;20033;-76
2021/03/26 12:16:01;;;;;;;;;;;15.00;44.50;;;;;;5033499;28;20048;-78
2021/03/26 12:18:52;;;;;;;128.82;75.25;;;15.00;44.70;;;;;;5066003;28;19932;-77
2021/03/26 12:21:29;;;;;;;89.70;40.58;;;15.10;44.70;;;;;;5041218;28;20026;-77
2021/03/26 12:24:14;;;;;;;53.15;26.23;;;15.20;44.50;;;;;;5051414;28;20041;-76
2021/03/26 12:27:08;;;;;;;48.55;25.40;;;15.30;45.90;;;;;;5042053;28;20021;-77
2021/03/26 12:29:56;;;;;;;48.47;25.10;;;15.20;45.50;;;;;;5045936;28;20028;-76
2021/03/26 12:32:33;;;;;;;52.25;25.40;;;15.30;44.90;;;;;;5046303;28;20501;-76
2021/03/26 12:35:08;;;;;;;49.13;25.98;;;15.20;44.40;;;;;;5042053;28;20028;-78
2021/03/26 12:38:11;;;;;;;45.38;22.40;;;15.20;44.60;;;;;;5052553;28;20017;-77
2021/03/26 12:40:46;;;;;;;46.22;24.15;;;15.20;44.50;;;;;;5028047;28;20087;-77
2021/03/26 12:43:30;;;;;;;44.15;22.08;;;15.40;44.50;;;;;;5052516;28;20039;-76
2021/03/26 12:46:11;;;;;;;41.85;22.73;;;15.40;44.50;;;;;;5052261;28;20037;-77
2021/03/26 12:48:51;;;;;;;40.10;22.27;;;15.50;44.70;;;;;;5053016;28;20040;-76
2021/03/26 12:51:27;;;;;;;56.75;29.75;;;15.60;45.10;;;;;;5052778;28;20045;-75
2021/03/26 12:54:15;;;;;;;59.70;31.10;;;15.50;45.50;;;;;;5048249;28;20029;-75
2021/03/26 12:56:53;;;;;;;58.45;31.25;;;15.30;45.70;;;;;;5041079;28;20043;-76
2021/03/26 12:59:35;;;;;;;58.15;30.90;;;15.00;46.90;;;;;;5052465;28;20033;-77
2021/03/26 13:02:09;;;;;;;54.25;29.67;;;14.90;47.40;;;;;;5051403;28;20041;-78
2021/03/26 13:05:17;;;;;;;68.90;33.17;;;14.80;48.40;;;;;;5040874;28;20025;-76
2021/03/26 13:07:51;;;;;;;63.28;34.22;;;14.80;49.20;;;;;;5028519;28;20025;-76
2021/03/26 13:10:26;;;;;;;58.53;30.58;;;14.90;48.90;;;;;;5031029;28;20107;-76
2021/03/26 13:13:01;;;;;;;53.65;28.23;;;14.90;48.60;;;;;;5047750;28;20393;-77
2021/03/26 13:15:31;;;;;;;52.42;27.23;;;14.90;47.80;;;;;;5049350;28;20437;-78
2021/03/26 13:18:08;;;;;;;44.60;24.27;;;14.90;47.50;;;;;;5066078;28;20063;-77
2021/03/26 13:20:57;;;;;;;43.72;23.20;;;14.90;47.80;;;;;;5052858;28;20021;-78
2021/03/26 13:23:33;;;;;;;51.10;26.48;;;15.00;48.10;;;;;;5052639;28;20041;-76